Time;durP1;ratioP1;P1;durP2;ratioP2;P2;SDS_P1;SDS_P2;PMS_P1;PMS_P2;Temp;Humidity;BMP_temperature;BMP_pressure;BME280_temperature;BME280_humidity;BME280_pressure;Samples;Min_cycle;Max_cycle;Signal;HPM_P1;HPM_P2
2022/08/22 00:00:58;;;;;;;4.55;1.42;;;;;;;23.55;40.10;101502.97;16141907;19;129507;-47
2022/08/22 00:06:40;;;;;;;2.47;1.33;;;;;;;23.57;40.23;101509.13;16145325;19;129876;-51
2022/08/22 00:12:11;;;;;;;3.63;1.30;;;;;;;23.55;40.39;101500.19;16145143;19;129309;-50
2022/08/22 00:18:06;;;;;;;5.18;1.25;;;;;;;23.55;40.63;101505.78;16144143;19;129743;-51
2022/08/22 00:23:51;;;;;;;3.35;1.27;;;;;;;23.55;40.84;101505.78;16141988;19;129322;-49
2022/08/22 00:29:18;;;;;;;3.40;1.48;;;;;;;23.54;40.90;101512.47;16141773;19;128974;-49
2022/08/22 00:35:06;;;;;;;4.93;1.48;;;;;;;23.54;40.55;101503.25;16143435;19;129354;-47
2022/08/22 00:40:54;;;;;;;2.55;1.27;;;;;;;23.53;40.58;101507.97;16138082;19;129414;-52
2022/08/22 00:46:27;;;;;;;3.75;1.20;;;;;;;23.52;40.38;101506.28;16143252;19;129268;-47
2022/08/22 00:51:59;;;;;;;2.75;1.30;;;;;;;23.52;40.59;101509.09;16137035;19;130464;-50
2022/08/22 00:57:47;;;;;;;2.20;1.10;;;;;;;23.51;40.63;101504.59;16136686;19;130180;-52
2022/08/22 01:03:41;;;;;;;3.00;1.20;;;;;;;23.50;40.67;101509.38;16138083;19;128960;-48
2022/08/22 01:09:32;;;;;;;2.22;0.98;;;;;;;23.50;40.71;101502.94;16139286;19;130943;-49
2022/08/22 01:14:59;;;;;;;1.95;1.10;;;;;;;23.49;40.75;101496.50;16140309;19;129565;-51
2022/08/22 01:20:39;;;;;;;3.80;1.23;;;;;;;23.49;40.75;101504.06;16136183;19;130300;-47
2022/08/22 01:26:54;;;;;;;2.70;1.23;;;;;;;23.47;40.39;101503.47;16140929;19;130994;-48
2022/08/22 01:33:11;;;;;;;2.17;1.00;;;;;;;23.46;40.83;101502.63;16129217;19;129978;-48
2022/08/22 01:38:51;;;;;;;2.08;1.20;;;;;;;23.48;40.75;101505.16;16128402;19;130414;-47
2022/08/22 01:44:43;;;;;;;3.33;1.40;;;;;;;23.48;40.93;101505.16;16130580;19;129782;-49
2022/08/22 01:50:17;;;;;;;3.38;1.30;;;;;;;23.47;40.73;101504.31;16126882;19;129526;-49
2022/08/22 01:55:52;;;;;;;2.53;1.17;;;;;;;23.47;40.65;101497.88;16125828;19;129615;-50
2022/08/22 02:01:35;;;;;;;3.30;1.27;;;;;;;23.46;40.86;101491.44;16124569;19;129552;-48
2022/08/22 02:07:26;;;;;;;2.38;1.05;;;;;;;23.46;40.61;101491.44;16131325;19;131060;-49
2022/08/22 02:13:11;;;;;;;2.80;1.10;;;;;;;23.46;40.80;101487.81;16137235;19;128843;-50
2022/08/22 02:19:14;;;;;;;3.33;1.30;;;;;;;23.44;40.81;101487.25;16132639;19;129670;-49
2022/08/22 02:25:04;;;;;;;3.53;0.90;;;;;;;23.44;40.87;101482.53;16134182;19;130265;-50
2022/08/22 02:30:45;;;;;;;2.42;1.00;;;;;;;23.44;40.60;101474.13;16134508;19;131383;-47
2022/08/22 02:36:40;;;;;;;2.55;1.20;;;;;;;23.44;40.83;101467.69;16130219;19;129996;-48
2022/08/22 02:42:27;;;;;;;2.78;1.27;;;;;;;23.42;40.89;101470.75;16128831;19;129160;-47
2022/08/22 02:48:16;;;;;;;2.88;1.00;;;;;;;23.43;40.92;101468.81;16133361;19;129408;-49
2022/08/22 02:53:53;;;;;;;2.30;1.08;;;;;;;23.41;40.77;101466.28;16130618;19;129036;-50
2022/08/22 02:59:35;;;;;;;2.60;1.00;;;;;;;23.41;40.96;101468.22;16129335;19;129188;-50
2022/08/22 03:05:13;;;;;;;4.90;1.10;;;;;;;23.40;40.83;101463.75;16143507;19;130417;-47
2022/08/22 03:10:42;;;;;;;2.72;1.23;;;;;;;23.40;40.92;101461.81;16148437;19;129403;-49
2022/08/22 03:16:15;;;;;;;2.60;1.20;;;;;;;23.40;40.80;101452.56;16149151;19;129196;-49
2022/08/22 03:21:58;;;;;;;3.30;1.20;;;;;;;23.40;40.92;101455.38;16145650;19;129785;-55
2022/08/22 03:27:32;;;;;;;3.10;1.27;;;;;;;23.38;40.97;101449.22;16147871;19;129208;-55
2022/08/22 03:33:00;;;;;;;2.55;1.25;;;;;;;23.37;41.06;101453.97;16148039;19;130444;-56
2022/08/22 03:38:31;;;;;;;3.50;1.35;;;;;;;23.37;40.89;101458.72;16146825;19;128985;-53
2022/08/22 03:43:59;;;;;;;2.63;1.30;;;;;;;23.36;40.84;101452.28;16147418;19;130454;-54
2022/08/22 03:49:45;;;;;;;2.88;1.23;;;;;;;23.38;40.71;101458.44;16145713;19;128903;-56
2022/08/22 03:55:33;;;;;;;2.03;1.13;;;;;;;23.35;40.96;101451.44;16142693;19;129360;-53
2022/08/22 04:01:27;;;;;;;3.75;1.13;;;;;;;23.35;40.93;101451.44;16141917;19;129638;-55
2022/08/22 04:07:13;;;;;;;2.55;1.00;;;;;;;23.37;41.07;101448.38;16142867;19;128970;-53
2022/08/22 04:13:28;;;;;;;3.05;1.27;;;;;;;23.33;40.96;101450.88;16139955;19;129128;-48
2022/08/22 04:19:07;;;;;;;2.35;1.10;;;;;;;23.35;40.89;101448.66;16132623;19;130412;-48
2022/08/22 04:24:37;;;;;;;2.75;1.05;;;;;;;23.34;41.03;101448.91;16134263;19;130306;-51
2022/08/22 04:30:05;;;;;;;4.05;1.45;;;;;;;23.34;41.14;101449.75;16133141;19;129312;-46
2022/08/22 04:35:45;;;;;;;2.13;1.08;;;;;;;23.35;41.00;101451.44;16132118;19;128948;-50
2022/08/22 04:41:12;;;;;;;3.10;1.13;;;;;;;23.34;41.15;101455.34;16126486;19;129829;-50
2022/08/22 04:46:44;;;;;;;4.00;1.33;;;;;;;23.33;40.81;101453.66;16121253;19;129477;-49
2022/08/22 04:52:06;;;;;;;4.15;1.10;;;;;;;23.33;40.99;101458.38;16124581;19;129799;-50
2022/08/22 04:57:49;;;;;;;3.58;1.00;;;;;;;23.34;40.72;101457.28;16132924;19;129175;-50
2022/08/22 05:03:15;;;;;;;3.63;1.40;;;;;;;23.33;41.03;101459.25;16141599;19;129666;-48
2022/08/22 05:08:39;;;;;;;3.20;1.17;;;;;;;23.32;41.09;101463.13;16141863;19;129278;-48
2022/08/22 05:14:15;;;;;;;3.72;1.00;;;;;;;23.32;41.05;101463.13;16140971;19;129433;-46
2022/08/22 05:19:39;;;;;;;;;;;;;;;23.29;41.13;101463.66;16138281;19;129297;-50
2022/08/22 05:25:08;;;;;;;2.75;1.13;;;;;;;23.31;41.02;101469.81;16140573;19;129758;-47
2022/08/22 05:30:34;;;;;;;2.53;1.10;;;;;;;23.30;41.23;101467.31;16138715;19;131270;-47
2022/08/22 05:36:19;;;;;;;4.95;1.30;;;;;;;23.30;41.14;101476.50;16139471;19;128821;-49
2022/08/22 05:41:41;;;;;;;4.65;1.65;;;;;;;23.29;41.09;101474.81;16132945;19;130217;-49
2022/08/22 05:47:30;;;;;;;2.20;1.23;;;;;;;23.31;41.05;101477.38;16136519;19;130188;-50
2022/08/22 05:53:17;;;;;;;2.28;1.00;;;;;;;23.29;41.27;101490.75;16132642;19;129274;-46
2022/08/22 05:58:38;;;;;;;18.38;2.45;;;;;;;23.28;41.03;101480.69;16134770;19;129320;-46
2022/08/22 06:04:06;;;;;;;7.15;1.52;;;;;;;23.30;41.40;101475.69;16137219;19;129769;-48
2022/08/22 06:10:10;;;;;;;3.95;1.50;;;;;;;23.29;41.26;101482.38;16135376;19;129975;-49
2022/08/22 06:15:50;;;;;;;3.05;1.30;;;;;;;23.29;41.03;101480.41;16136411;19;129836;-49
2022/08/22 06:21:19;;;;;;;7.20;1.17;;;;;;;23.28;41.16;101483.47;16133556;19;129866;-48
2022/08/22 06:26:45;;;;;;;9.18;1.95;;;;;;;23.30;41.26;101492.44;16134479;19;129507;-49
2022/08/22 06:32:19;;;;;;;4.80;1.40;;;;;;;23.30;41.23;101493.25;16135795;19;129070;-49
2022/08/22 06:38:02;;;;;;;6.45;1.70;;;;;;;23.31;41.31;101497.75;16147655;19;130586;-51
2022/08/22 06:43:24;;;;;;;5.43;1.73;;;;;;;23.31;41.41;101492.16;16145670;19;130276;-51
2022/08/22 06:48:47;;;;;;;4.45;1.67;;;;;;;23.32;41.03;101502.22;16149000;19;129376;-48
2022/08/22 06:54:18;;;;;;;2.95;1.75;;;;;;;23.33;41.20;101509.50;16144892;19;129230;-49
2022/08/22 06:59:42;;;;;;;8.48;2.05;;;;;;;23.32;41.27;101504.19;16148880;19;128803;-48
2022/08/22 07:05:08;;;;;;;9.77;1.77;;;;;;;23.32;40.98;101512.56;16148302;19;129295;-58
2022/08/22 07:10:30;;;;;;;5.60;1.88;;;;;;;23.33;41.35;101503.91;16145071;19;129505;-48
2022/08/22 07:15:56;;;;;;;4.65;2.10;;;;;;;23.36;41.33;101502.53;16146747;19;130157;-46
2022/08/22 07:21:45;;;;;;;9.07;2.08;;;;;;;23.40;41.44;101486.94;16144313;19;130051;-37
2022/08/22 07:27:11;;;;;;;3.72;1.75;;;;;;;23.43;41.21;101493.94;16144328;19;129550;-36
2022/08/22 07:32:49;;;;;;;6.13;2.08;;;;;;;23.43;41.41;101491.13;16141605;19;129994;-36
2022/08/22 07:38:17;;;;;;;6.55;1.90;;;;;;;23.43;41.50;101496.72;16144018;19;129235;-36
2022/08/22 07:43:56;;;;;;;8.70;2.30;;;;;;;23.43;41.46;101488.34;16137473;19;129415;-36
2022/08/22 07:49:25;;;;;;;6.78;2.30;;;;;;;23.42;41.79;101484.72;16139667;19;129077;-36
2022/08/22 07:54:53;;;;;;;7.90;2.45;;;;;;;23.43;41.52;101491.13;16137434;19;130771;-36
2022/08/22 08:00:19;;;;;;;8.43;2.55;;;;;;;23.45;41.44;101488.94;16141055;19;129413;-36
2022/08/22 08:05:43;;;;;;;7.50;2.70;;;;;;;23.45;41.08;101477.75;16144312;19;129853;-36
2022/08/22 08:11:08;;;;;;;6.68;2.33;;;;;;;23.44;41.50;101482.53;16142628;19;128923;-36
2022/08/22 08:16:41;;;;;;;5.28;2.05;;;;;;;23.44;41.46;101481.66;16145395;19;129944;-36
2022/08/22 08:22:04;;;;;;;6.82;2.25;;;;;;;23.44;41.45;101488.09;16138975;19;129094;-35
2022/08/22 08:33:21;;;;;;;6.40;2.35;;;;;;;23.43;41.48;101489.22;16140079;19;129466;-36
2022/08/22 08:39:15;;;;;;;6.68;2.67;;;;;;;23.44;41.62;101488.09;16141466;19;130272;-36
2022/08/22 08:45:18;;;;;;;5.80;2.00;;;;;;;23.45;41.38;101488.94;16140709;19;129684;-36
2022/08/22 08:51:06;;;;;;;6.85;2.50;;;;;;;23.46;41.29;101479.44;16141218;19;129176;-36
2022/08/22 08:56:54;;;;;;;10.75;2.83;;;;;;;23.47;41.49;101469.97;16137157;19;129612;-36
2022/08/22 09:02:34;;;;;;;8.50;2.42;;;;;;;23.49;41.52;101467.75;16135136;19;129929;-36
2022/08/22 09:08:32;;;;;;;6.60;2.60;;;;;;;23.53;41.52;101474.47;16140524;19;129549;-36
2022/08/22 09:14:25;;;;;;;8.45;3.00;;;;;;;23.56;41.57;101467.53;16138680;19;130381;-36
2022/08/22 09:19:59;;;;;;;7.28;2.33;;;;;;;23.60;41.51;101455.59;16140031;19;128996;-36
2022/08/22 09:25:34;;;;;;;5.82;2.47;;;;;;;23.64;41.32;101450.28;16135395;19;129405;-36
2022/08/22 09:31:01;;;;;;;9.15;2.20;;;;;;;23.65;41.72;101461.19;16137092;19;130142;-36
2022/08/22 09:36:49;;;;;;;11.82;2.78;;;;;;;23.71;41.68;101456.47;16141389;19;129689;-36
2022/08/22 09:42:29;;;;;;;11.20;2.53;;;;;;;23.72;41.55;101449.78;16135739;19;129788;-35
2022/08/22 09:47:59;;;;;;;8.55;2.75;;;;;;;23.82;41.59;101458.22;16137041;19;130255;-36
2022/08/22 09:53:53;;;;;;;6.35;3.08;;;;;;;23.87;41.54;101443.47;16132538;19;130192;-36
2022/08/22 09:59:49;;;;;;;8.77;2.58;;;;;;;23.90;41.50;101451.28;16137643;19;129724;-36
2022/08/22 10:05:18;;;;;;;8.52;2.60;;;;;;;23.92;41.46;101445.47;16129945;19;130602;-36
2022/08/22 10:11:12;;;;;;;12.98;3.22;;;;;;;23.95;41.58;101442.97;16132245;19;130505;-36
2022/08/22 10:16:46;;;;;;;6.22;2.33;;;;;;;23.99;41.53;101442.44;16136347;19;130600;-36
2022/08/22 10:22:14;;;;;;;10.77;3.28;;;;;;;24.00;41.72;101435.72;16132635;19;129844;-36
2022/08/22 10:27:39;;;;;;;8.68;2.65;;;;;;;24.02;41.79;101430.69;16130360;19;130910;-36
2022/08/22 10:33:18;;;;;;;7.27;2.23;;;;;;;24.04;41.35;101425.66;16135849;19;129532;-36
2022/08/22 10:38:47;;;;;;;5.35;2.22;;;;;;;24.05;41.71;101416.16;16131088;19;129029;-36
2022/08/22 10:44:36;;;;;;;9.25;2.20;;;;;;;24.07;41.64;101413.94;16127635;19;129429;-36
2022/08/22 10:50:24;;;;;;;9.63;2.17;;;;;;;24.09;41.61;101412.56;16129952;19;129231;-36
2022/08/22 10:56:02;;;;;;;9.07;2.30;;;;;;;24.08;41.44;101410.88;16126069;19;129759;-36
2022/08/22 11:01:28;;;;;;;11.35;2.60;;;;;;;24.11;41.47;101404.75;16128227;19;129588;-35
2022/08/22 11:07:34;;;;;;;10.52;2.92;;;;;;;24.16;41.31;101406.72;16131187;19;129386;-36
2022/08/22 11:13:14;;;;;;;13.65;3.00;;;;;;;24.18;41.92;101401.69;16130143;19;128848;-36
2022/08/22 11:18:49;;;;;;;7.85;2.63;;;;;;;24.20;41.66;101409.81;16129919;19;129381;-36
2022/08/22 11:24:26;;;;;;;15.10;2.70;;;;;;;24.19;41.89;101405.31;16138515;19;129583;-36
2022/08/22 11:29:59;;;;;;;9.00;2.83;;;;;;;24.18;42.38;101401.69;16144413;19;129613;-36
2022/08/22 11:35:30;;;;;;;8.25;2.42;;;;;;;24.18;42.05;101407.28;16146730;19;129914;-36
2022/08/22 11:40:58;;;;;;;12.93;2.40;;;;;;;24.18;41.73;101400.88;16144128;19;129361;-36
2022/08/22 11:46:26;;;;;;;14.73;3.00;;;;;;;24.18;41.44;101393.31;16143620;19;129008;-36
2022/08/22 11:52:09;;;;;;;10.25;2.60;;;;;;;24.17;41.66;101376.81;16140467;19;129289;-36
2022/08/22 11:57:33;;;;;;;10.73;2.53;;;;;;;24.17;41.85;101383.25;16143064;19;129856;-36
2022/08/22 12:03:16;;;;;;;11.00;3.03;;;;;;;24.17;42.06;101377.66;16138190;19;129267;-36
2022/08/22 12:08:45;;;;;;;7.65;2.55;;;;;;;24.18;42.32;101372.91;16141661;19;129726;-35
2022/08/22 12:14:54;;;;;;;8.52;2.60;;;;;;;24.17;42.41;101372.06;16141096;19;129516;-36
2022/08/22 12:20:26;;;;;;;8.82;3.15;;;;;;;24.15;42.66;101368.69;16132160;19;129827;-36
2022/08/22 12:25:48;;;;;;;11.77;2.58;;;;;;;24.15;42.56;101371.50;16130090;19;132086;-36
2022/08/22 12:31:32;;;;;;;12.98;2.33;;;;;;;24.15;42.62;101368.69;16120686;19;129608;-36
2022/08/22 12:37:02;;;;;;;6.90;1.92;;;;;;;24.11;42.74;101362.81;16126851;19;130250;-36
2022/08/22 12:42:56;;;;;;;7.25;2.20;;;;;;;24.14;43.07;101352.22;16125168;19;131510;-36
2022/08/22 12:48:32;;;;;;;6.90;2.13;;;;;;;24.15;42.89;101345.50;16131454;19;129564;-36
2022/08/22 12:54:38;;;;;;;9.68;2.17;;;;;;;24.15;42.58;101334.31;16129182;19;129276;-36
2022/08/22 13:00:17;;;;;;;11.65;2.08;;;;;;;24.17;42.83;101326.50;16135975;19;130667;-36
2022/08/22 13:05:47;;;;;;;12.88;2.10;;;;;;;24.16;42.39;101336.84;16136306;19;129028;-36
2022/08/22 13:11:21;;;;;;;5.57;1.83;;;;;;;24.16;42.06;101333.22;16135305;19;129324;-36
2022/08/22 13:16:48;;;;;;;8.70;2.00;;;;;;;24.17;42.15;101326.50;16136022;19;130864;-36
2022/08/22 13:22:18;;;;;;;6.47;2.28;;;;;;;24.15;42.02;101328.72;16134702;19;129914;-36
2022/08/22 13:27:46;;;;;;;8.52;1.85;;;;;;;24.14;41.78;101325.09;16137530;19;131975;-36
2022/08/22 13:33:20;;;;;;;7.60;1.90;;;;;;;24.14;41.81;101316.69;16136931;19;129518;-36
2022/08/22 13:38:56;;;;;;;4.88;1.77;;;;;;;24.14;41.74;101316.69;16137430;19;130229;-36
2022/08/22 13:44:29;;;;;;;5.72;2.30;;;;;;;24.15;41.57;101315.59;16134992;19;129422;-36
2022/08/22 13:50:04;;;;;;;8.18;1.83;;;;;;;24.14;41.27;101310.28;16139033;19;130129;-36
2022/08/22 13:55:44;;;;;;;9.18;1.88;;;;;;;24.14;41.17;101302.72;16128388;19;129408;-36
2022/08/22 14:01:39;;;;;;;7.63;1.55;;;;;;;24.14;40.44;101304.69;16131816;19;131013;-36
2022/08/22 14:07:01;;;;;;;9.18;2.20;;;;;;;24.10;41.08;101310.00;16136033;19;129502;-36
2022/08/22 14:12:31;;;;;;;6.70;1.95;;;;;;;24.10;40.86;101307.19;16131953;19;129548;-36
2022/08/22 14:18:00;;;;;;;11.38;2.38;;;;;;;24.11;40.95;101298.53;16135455;19;130956;-36
2022/08/22 14:23:28;;;;;;;4.57;1.75;;;;;;;24.10;40.97;101304.41;16131021;19;130418;-36
2022/08/22 14:28:55;;;;;;;10.27;2.38;;;;;;;24.08;40.68;101296.28;16133473;19;129467;-36
2022/08/22 14:34:17;;;;;;;9.88;1.73;;;;;;;24.09;40.82;101297.97;16134226;19;129160;-36
2022/08/22 14:40:02;;;;;;;8.05;1.83;;;;;;;24.12;40.27;101286.25;16130410;19;129326;-36
2022/08/22 14:45:30;;;;;;;6.20;2.08;;;;;;;24.13;40.09;101287.06;16126644;19;129154;-36
2022/08/22 14:50:58;;;;;;;7.25;1.80;;;;;;;24.12;39.95;101277.03;16135486;19;129499;-36
2022/08/22 14:56:23;;;;;;;6.53;1.85;;;;;;;24.11;39.49;101269.75;16132898;19;129726;-36
2022/08/22 15:01:55;;;;;;;;;;;;;;;24.10;39.87;101251.31;16138555;19;131401;-36
2022/08/22 15:07:28;;;;;;;5.88;1.83;;;;;;;24.11;39.87;101244.59;16150396;19;129994;-36
2022/08/22 15:12:57;;;;;;;5.40;1.60;;;;;;;24.09;39.35;101246.81;16143756;19;130101;-36
2022/08/22 15:18:22;;;;;;;3.78;1.30;;;;;;;24.06;39.41;101239.81;16141632;19;129757;-36
2022/08/22 15:23:43;;;;;;;6.20;1.50;;;;;;;24.04;39.08;101238.41;16141954;19;130092;-36
2022/08/22 15:29:16;;;;;;;6.20;1.75;;;;;;;24.03;38.73;101232.00;16145596;19;130075;-36
2022/08/22 15:34:44;;;;;;;3.70;1.55;;;;;;;24.03;38.47;101236.72;16146434;19;131525;-36
2022/08/22 15:40:09;;;;;;;6.85;2.17;;;;;;;24.05;37.97;101243.75;16144889;19;129860;-36
2022/08/22 15:45:36;;;;;;;10.18;1.80;;;;;;;24.08;37.99;101234.78;16138669;19;130634;-35
2022/08/22 15:51:12;;;;;;;11.55;2.20;;;;;;;24.11;38.14;101230.63;16145226;19;129872;-36
2022/08/22 15:56:44;;;;;;;5.28;1.70;;;;;;;24.10;38.41;101226.97;16142524;19;130526;-35
2022/08/22 16:02:19;;;;;;;9.20;1.92;;;;;;;24.11;38.94;101225.84;16142085;19;129640;-35
2022/08/22 16:07:49;;;;;;;8.60;1.93;;;;;;;24.10;38.71;101221.38;16140177;19;129975;-35
2022/08/22 16:13:28;;;;;;;10.35;2.42;;;;;;;24.15;39.33;101211.34;16142213;19;129845;-35
2022/08/22 16:18:50;;;;;;;4.70;1.83;;;;;;;24.14;39.08;101206.84;16141969;19;133298;-35
2022/08/22 16:24:11;;;;;;;10.82;2.45;;;;;;;24.13;39.45;101206.00;16140612;19;129546;-35
2022/08/22 16:29:37;;;;;;;10.40;2.35;;;;;;;24.13;39.80;101194.81;16142048;19;129270;-35
2022/08/22 16:35:02;;;;;;;14.10;1.80;;;;;;;24.14;40.06;101195.69;16140829;19;130012;-38
2022/08/22 16:40:25;;;;;;;9.38;2.00;;;;;;;24.14;40.27;101187.28;16134967;19;129802;-35
2022/08/22 16:45:49;;;;;;;9.05;2.00;;;;;;;24.12;40.38;101193.16;16137872;19;130340;-35
2022/08/22 16:51:17;;;;;;;10.45;2.45;;;;;;;24.10;38.93;101178.63;16143239;19;129777;-35
2022/08/22 16:57:07;;;;;;;7.43;2.05;;;;;;;24.11;39.21;101180.31;16134649;19;130411;-35
2022/08/22 17:02:51;;;;;;;7.00;2.15;;;;;;;24.10;39.32;101173.03;16139228;19;129545;-35
2022/08/22 17:08:13;;;;;;;7.47;1.80;;;;;;;24.10;39.21;101184.22;16141655;19;129116;-35
2022/08/22 17:13:34;;;;;;;21.48;2.40;;;;;;;24.07;39.24;101184.78;16135036;19;129640;-35
2022/08/22 17:19:02;;;;;;;11.32;2.88;;;;;;;24.09;39.35;101194.53;16136235;19;129548;-35
2022/08/22 17:24:47;;;;;;;12.73;2.03;;;;;;;24.11;39.66;101188.69;16139351;19;128911;-35
2022/08/22 17:30:19;;;;;;;14.18;2.17;;;;;;;24.10;39.39;101193.44;16140098;19;130023;-35
2022/08/22 17:35:54;;;;;;;9.82;2.15;;;;;;;24.14;38.96;101202.09;16143336;19;130147;-35
2022/08/22 17:41:30;;;;;;;12.82;2.95;;;;;;;24.15;39.38;101202.94;16139507;19;129488;-35
2022/08/22 17:47:15;;;;;;;7.15;2.38;;;;;;;24.15;39.27;101200.97;16139886;19;129522;-35
2022/08/22 17:52:47;;;;;;;10.57;2.20;;;;;;;24.14;39.39;101209.66;16133917;19;130713;-36
2022/08/22 17:58:14;;;;;;;9.63;2.10;;;;;;;24.10;39.39;101214.97;16138487;19;129056;-35
2022/08/22 18:04:00;;;;;;;5.47;2.03;;;;;;;24.07;39.38;101216.34;16134038;19;130554;-35
2022/08/22 18:09:35;;;;;;;7.22;1.80;;;;;;;24.03;39.37;101206.84;16136536;19;130116;-35
2022/08/22 18:15:44;;;;;;;5.18;2.08;;;;;;;24.00;39.91;101214.94;16136299;19;130668;-35
2022/08/22 18:21:23;;;;;;;7.25;2.00;;;;;;;24.00;39.61;101221.38;16134563;19;130117;-35
2022/08/22 18:27:01;;;;;;;5.88;1.67;;;;;;;23.98;39.32;101215.22;16136393;19;129294;-35
2022/08/22 18:32:40;;;;;;;4.00;1.52;;;;;;;23.96;39.82;101226.69;16138041;19;130327;-34
2022/08/22 18:38:10;;;;;;;6.63;1.98;;;;;;;23.93;39.47;101238.41;16151378;19;129742;-34
2022/08/22 18:43:43;;;;;;;5.72;1.80;;;;;;;23.92;39.86;101231.13;16149231;19;130733;-35
2022/08/22 18:49:18;;;;;;;7.55;2.20;;;;;;;23.90;39.69;101238.94;16148115;19;129807;-35
2022/08/22 18:54:43;;;;;;;17.60;2.40;;;;;;;23.91;40.10;101235.03;16142025;19;129686;-35
2022/08/22 19:00:17;;;;;;;42.33;3.28;;;;;;;23.93;39.86;101237.56;16148817;19;129128;-35
2022/08/22 19:06:24;;;;;;;16.42;2.05;;;;;;;23.94;40.16;101240.06;16145930;19;129064;-35
2022/08/22 19:12:17;;;;;;;10.52;2.03;;;;;;;23.96;40.19;101260.22;16145252;19;129965;-35
2022/08/22 19:17:56;;;;;;;12.18;2.40;;;;;;;23.97;40.16;101267.47;16149488;19;130187;-35
2022/08/22 19:23:31;;;;;;;13.63;2.10;;;;;;;23.98;40.25;101271.09;16145793;19;128907;-35
2022/08/22 19:29:17;;;;;;;23.25;3.03;;;;;;;23.97;40.49;101273.06;16147293;19;129486;-35
2022/08/22 19:34:43;;;;;;;26.37;2.70;;;;;;;23.94;40.70;101268.03;16149331;19;129457;-35
2022/08/22 19:40:10;;;;;;;18.15;2.67;;;;;;;23.93;40.57;101273.91;16145155;19;129422;-35
2022/08/22 19:45:38;;;;;;;15.70;2.30;;;;;;;23.91;40.46;101265.78;16143887;19;130138;-35
2022/08/22 19:51:20;;;;;;;12.52;2.25;;;;;;;23.90;40.51;101266.06;16145572;19;130425;-35
2022/08/22 19:57:05;;;;;;;10.27;2.10;;;;;;;23.88;40.25;101268.28;16139224;19;129165;-35
2022/08/22 20:02:48;;;;;;;11.70;2.13;;;;;;;23.85;40.43;101275.25;16143464;19;129337;-35
2022/08/22 20:08:49;;;;;;;6.80;1.90;;;;;;;23.85;40.01;101275.25;16144821;19;129506;-44
2022/08/22 20:14:29;;;;;;;4.95;1.98;;;;;;;23.84;40.22;101268.00;16143108;19;130769;-40
2022/08/22 20:19:54;;;;;;;7.20;1.80;;;;;;;23.84;40.29;101276.38;16143637;19;130835;-41
2022/08/22 20:25:49;;;;;;;5.53;1.90;;;;;;;23.84;40.23;101279.16;16140258;19;129473;-39
2022/08/22 20:31:20;;;;;;;5.10;1.98;;;;;;;23.83;40.56;101266.31;16145793;19;129419;-38
2022/08/22 20:36:44;;;;;;;6.78;2.25;;;;;;;23.81;40.31;101268.53;16145248;19;129277;-38
2022/08/22 20:42:12;;;;;;;3.47;1.42;;;;;;;23.81;40.32;101271.31;16144489;19;129344;-42
2022/08/22 20:47:34;;;;;;;8.25;1.42;;;;;;;23.80;40.58;101278.03;16142099;19;130732;-39
2022/08/22 20:53:20;;;;;;;5.47;1.77;;;;;;;23.80;40.58;101275.22;16136610;19;129618;-35
2022/08/22 20:58:47;;;;;;;5.10;1.88;;;;;;;23.79;40.66;101271.59;16141153;19;129568;-35
2022/08/22 21:04:10;;;;;;;5.13;2.20;;;;;;;23.79;40.83;101276.34;16137950;19;129612;-35
2022/08/22 21:15:12;;;;;;;4.97;1.65;;;;;;;23.78;40.91;101271.88;16140512;19;128823;-35
2022/08/22 21:20:36;;;;;;;7.22;1.88;;;;;;;23.79;41.04;101276.34;16140185;19;129461;-35
2022/08/22 21:26:07;;;;;;;3.65;1.40;;;;;;;23.78;40.85;101281.09;16135934;19;129420;-35
2022/08/22 21:31:34;;;;;;;4.30;1.65;;;;;;;23.78;40.98;101283.03;16140201;19;130639;-35
2022/08/22 21:37:00;;;;;;;4.88;1.73;;;;;;;23.76;40.92;101283.31;16139999;19;129550;-35
2022/08/22 21:42:33;;;;;;;5.00;1.77;;;;;;;23.77;40.97;101281.34;16140966;19;129913;-35
2022/08/22 21:47:55;;;;;;;3.55;1.60;;;;;;;23.75;41.08;101287.22;16134704;19;129690;-35
2022/08/22 21:53:27;;;;;;;7.45;1.60;;;;;;;23.76;41.25;101288.06;16135625;19;129627;-35
2022/08/22 21:58:48;;;;;;;3.78;1.67;;;;;;;23.74;40.79;101296.72;16136859;19;128921;-35
2022/08/22 22:04:13;;;;;;;5.55;1.58;;;;;;;23.74;41.06;101290.31;16136018;19;129249;-35
2022/08/22 22:09:35;;;;;;;5.88;1.73;;;;;;;23.74;40.98;101293.94;16137657;19;129117;-35
2022/08/22 22:14:57;;;;;;;3.08;1.80;;;;;;;23.73;41.01;101283.03;16138827;19;129677;-35
2022/08/22 22:20:21;;;;;;;4.97;1.77;;;;;;;23.74;41.19;101279.13;16136890;19;129870;-35
2022/08/22 22:25:44;;;;;;;3.60;1.83;;;;;;;23.72;41.27;101284.97;16131638;19;129970;-36
2022/08/22 22:31:06;;;;;;;7.00;1.95;;;;;;;23.73;41.17;101291.41;16135216;19;128976;-36
2022/08/22 22:36:28;;;;;;;6.03;1.80;;;;;;;23.72;41.26;101292.53;16137335;19;129912;-36
2022/08/22 22:41:50;;;;;;;4.32;1.70;;;;;;;23.72;41.34;101300.91;16133250;19;128899;-35
2022/08/22 22:47:12;;;;;;;5.28;1.60;;;;;;;23.71;41.10;101293.63;16129802;19;129506;-36
2022/08/22 22:52:34;;;;;;;5.38;1.83;;;;;;;23.69;41.16;101296.72;16133074;19;130711;-36
2022/08/22 22:58:01;;;;;;;5.30;1.88;;;;;;;23.69;41.23;101293.91;16132593;19;128965;-35
2022/08/22 23:03:25;;;;;;;2.63;1.50;;;;;;;23.68;41.29;101292.25;16128651;19;129841;-35
2022/08/22 23:08:47;;;;;;;3.55;1.70;;;;;;;23.69;41.11;101312.63;16132307;19;130133;-35
2022/08/22 23:14:09;;;;;;;5.03;1.70;;;;;;;23.68;41.37;101313.72;16131688;19;129010;-35
2022/08/22 23:19:31;;;;;;;3.33;1.65;;;;;;;23.68;41.19;101302.56;16143194;19;130656;-36
2022/08/22 23:24:52;;;;;;;2.63;1.73;;;;;;;23.68;41.29;101300.63;16145736;19;129690;-35
2022/08/22 23:30:14;;;;;;;3.88;1.70;;;;;;;23.66;40.91;101295.28;16146370;19;129301;-36
2022/08/22 23:35:36;;;;;;;3.90;1.85;;;;;;;23.67;41.28;101290.56;16150308;19;129485;-35
2022/08/22 23:41:04;;;;;;;2.63;1.45;;;;;;;23.68;41.40;101299.75;16147045;19;129636;-36
2022/08/22 23:46:30;;;;;;;2.42;1.63;;;;;;;23.65;40.90;101304.78;16144849;19;129268;-36
2022/08/22 23:51:54;;;;;;;2.95;1.50;;;;;;;23.65;41.13;101307.56;16145689;19;129398;-35
2022/08/22 23:57:16;;;;;;;3.30;1.60;;;;;;;23.64;40.93;101308.69;16140396;19;131481;-36
